sensor_id;sensor_type;location;lat;lon;timestamp;P1;durP1;ratioP1;P2;durP2;ratioP2
38132;SDS011;23948;43.252;26.572;2022-07-10T00:00:51;11.15;;;5.30;;
38132;SDS011;23948;43.252;26.572;2022-07-10T00:03:16;7.03;;;5.30;;
38132;SDS011;23948;43.252;26.572;2022-07-10T00:05:42;8.02;;;4.85;;
38132;SDS011;23948;43.252;26.572;2022-07-10T00:08:07;7.38;;;4.78;;
38132;SDS011;23948;43.252;26.572;2022-07-10T00:10:32;8.40;;;4.85;;
38132;SDS011;23948;43.252;26.572;2022-07-10T00:12:58;8.73;;;5.22;;
38132;SDS011;23948;43.252;26.572;2022-07-10T00:15:23;6.72;;;4.75;;
38132;SDS011;23948;43.252;26.572;2022-07-10T00:17:49;8.88;;;4.80;;
38132;SDS011;23948;43.252;26.572;2022-07-10T00:20:15;6.68;;;5.20;;
38132;SDS011;23948;43.252;26.572;2022-07-10T00:22:40;5.60;;;4.70;;
38132;SDS011;23948;43.252;26.572;2022-07-10T00:25:06;8.50;;;5.28;;
38132;SDS011;23948;43.252;26.572;2022-07-10T00:27:31;7.20;;;5.20;;
38132;SDS011;23948;43.252;26.572;2022-07-10T00:29:57;9.27;;;5.30;;
38132;SDS011;23948;43.252;26.572;2022-07-10T00:32:23;7.55;;;5.05;;
38132;SDS011;23948;43.252;26.572;2022-07-10T00:34:48;7.32;;;5.18;;
38132;SDS011;23948;43.252;26.572;2022-07-10T00:37:13;7.65;;;5.10;;
38132;SDS011;23948;43.252;26.572;2022-07-10T00:39:39;6.20;;;4.90;;
38132;SDS011;23948;43.252;26.572;2022-07-10T00:42:11;8.48;;;4.95;;
38132;SDS011;23948;43.252;26.572;2022-07-10T00:44:40;7.78;;;4.88;;
38132;SDS011;23948;43.252;26.572;2022-07-10T00:47:05;6.35;;;5.10;;
38132;SDS011;23948;43.252;26.572;2022-07-10T00:49:32;8.98;;;5.30;;
38132;SDS011;23948;43.252;26.572;2022-07-10T00:51:57;7.72;;;5.05;;
38132;SDS011;23948;43.252;26.572;2022-07-10T00:54:24;10.00;;;5.18;;
38132;SDS011;23948;43.252;26.572;2022-07-10T00:56:50;7.22;;;5.05;;
38132;SDS011;23948;43.252;26.572;2022-07-10T00:59:15;5.85;;;5.25;;
38132;SDS011;23948;43.252;26.572;2022-07-10T01:01:41;7.88;;;5.53;;
38132;SDS011;23948;43.252;26.572;2022-07-10T01:04:06;6.75;;;4.97;;
38132;SDS011;23948;43.252;26.572;2022-07-10T01:06:31;7.05;;;5.78;;
38132;SDS011;23948;43.252;26.572;2022-07-10T01:08:57;8.55;;;5.35;;
38132;SDS011;23948;43.252;26.572;2022-07-10T01:11:23;7.43;;;5.68;;
38132;SDS011;23948;43.252;26.572;2022-07-10T01:13:48;7.10;;;5.35;;
38132;SDS011;23948;43.252;26.572;2022-07-10T01:16:13;6.18;;;5.22;;
38132;SDS011;23948;43.252;26.572;2022-07-10T01:18:39;10.77;;;5.53;;
38132;SDS011;23948;43.252;26.572;2022-07-10T01:21:04;7.25;;;5.55;;
38132;SDS011;23948;43.252;26.572;2022-07-10T01:23:30;8.93;;;6.18;;
38132;SDS011;23948;43.252;26.572;2022-07-10T01:25:55;8.13;;;5.97;;
38132;SDS011;23948;43.252;26.572;2022-07-10T01:28:21;8.57;;;6.05;;
38132;SDS011;23948;43.252;26.572;2022-07-10T01:30:46;8.10;;;5.93;;
38132;SDS011;23948;43.252;26.572;2022-07-10T01:33:12;8.18;;;6.82;;
38132;SDS011;23948;43.252;26.572;2022-07-10T01:35:37;7.68;;;6.10;;
38132;SDS011;23948;43.252;26.572;2022-07-10T01:38:03;8.80;;;5.72;;
38132;SDS011;23948;43.252;26.572;2022-07-10T01:40:29;7.00;;;6.07;;
38132;SDS011;23948;43.252;26.572;2022-07-10T01:42:54;9.15;;;5.90;;
38132;SDS011;23948;43.252;26.572;2022-07-10T01:45:19;8.07;;;6.15;;
38132;SDS011;23948;43.252;26.572;2022-07-10T01:47:45;7.50;;;6.10;;
38132;SDS011;23948;43.252;26.572;2022-07-10T01:50:10;7.80;;;6.20;;
38132;SDS011;23948;43.252;26.572;2022-07-10T01:52:36;8.18;;;6.05;;
38132;SDS011;23948;43.252;26.572;2022-07-10T01:55:01;7.53;;;5.75;;
38132;SDS011;23948;43.252;26.572;2022-07-10T01:57:27;9.40;;;6.10;;
38132;SDS011;23948;43.252;26.572;2022-07-10T01:59:52;7.88;;;6.47;;
38132;SDS011;23948;43.252;26.572;2022-07-10T02:02:17;10.80;;;6.95;;
38132;SDS011;23948;43.252;26.572;2022-07-10T02:04:43;9.05;;;6.55;;
38132;SDS011;23948;43.252;26.572;2022-07-10T02:07:11;7.53;;;6.60;;
38132;SDS011;23948;43.252;26.572;2022-07-10T02:09:37;7.75;;;6.53;;
38132;SDS011;23948;43.252;26.572;2022-07-10T02:12:04;8.77;;;6.30;;
38132;SDS011;23948;43.252;26.572;2022-07-10T02:14:29;9.98;;;7.13;;
38132;SDS011;23948;43.252;26.572;2022-07-10T02:16:55;7.53;;;6.30;;
38132;SDS011;23948;43.252;26.572;2022-07-10T02:19:20;10.07;;;6.93;;
38132;SDS011;23948;43.252;26.572;2022-07-10T02:21:46;10.23;;;7.20;;
38132;SDS011;23948;43.252;26.572;2022-07-10T02:24:11;10.23;;;7.30;;
38132;SDS011;23948;43.252;26.572;2022-07-10T02:26:37;11.70;;;7.10;;
38132;SDS011;23948;43.252;26.572;2022-07-10T02:29:02;11.15;;;7.18;;
38132;SDS011;23948;43.252;26.572;2022-07-10T02:31:27;10.30;;;7.03;;
38132;SDS011;23948;43.252;26.572;2022-07-10T02:33:53;10.27;;;6.50;;
38132;SDS011;23948;43.252;26.572;2022-07-10T02:36:18;10.18;;;7.00;;
38132;SDS011;23948;43.252;26.572;2022-07-10T02:38:43;9.48;;;6.85;;
38132;SDS011;23948;43.252;26.572;2022-07-10T02:41:08;10.18;;;7.45;;
38132;SDS011;23948;43.252;26.572;2022-07-10T02:43:34;9.25;;;7.20;;
38132;SDS011;23948;43.252;26.572;2022-07-10T02:45:59;10.30;;;7.15;;
38132;SDS011;23948;43.252;26.572;2022-07-10T02:48:24;12.07;;;7.70;;
38132;SDS011;23948;43.252;26.572;2022-07-10T02:50:50;9.77;;;7.30;;
38132;SDS011;23948;43.252;26.572;2022-07-10T02:53:15;9.63;;;7.88;;
38132;SDS011;23948;43.252;26.572;2022-07-10T02:55:40;8.98;;;8.05;;
38132;SDS011;23948;43.252;26.572;2022-07-10T02:58:06;10.40;;;8.25;;
38132;SDS011;23948;43.252;26.572;2022-07-10T03:00:31;10.63;;;8.50;;
38132;SDS011;23948;43.252;26.572;2022-07-10T03:02:56;9.40;;;8.30;;
38132;SDS011;23948;43.252;26.572;2022-07-10T03:05:22;9.43;;;8.07;;
38132;SDS011;23948;43.252;26.572;2022-07-10T03:07:47;10.63;;;7.95;;
38132;SDS011;23948;43.252;26.572;2022-07-10T03:10:12;11.02;;;7.80;;
38132;SDS011;23948;43.252;26.572;2022-07-10T03:12:38;10.13;;;8.02;;
38132;SDS011;23948;43.252;26.572;2022-07-10T03:15:06;10.77;;;8.32;;
38132;SDS011;23948;43.252;26.572;2022-07-10T03:17:32;10.05;;;8.13;;
38132;SDS011;23948;43.252;26.572;2022-07-10T03:19:57;10.45;;;8.25;;
38132;SDS011;23948;43.252;26.572;2022-07-10T03:22:23;11.63;;;8.50;;
38132;SDS011;23948;43.252;26.572;2022-07-10T03:24:48;9.45;;;7.35;;
38132;SDS011;23948;43.252;26.572;2022-07-10T03:27:14;10.35;;;7.97;;
38132;SDS011;23948;43.252;26.572;2022-07-10T03:29:39;11.05;;;7.65;;
38132;SDS011;23948;43.252;26.572;2022-07-10T03:32:05;8.77;;;7.68;;
38132;SDS011;23948;43.252;26.572;2022-07-10T03:34:31;13.63;;;7.55;;
38132;SDS011;23948;43.252;26.572;2022-07-10T03:36:58;9.52;;;7.65;;
38132;SDS011;23948;43.252;26.572;2022-07-10T03:39:24;11.93;;;7.22;;
38132;SDS011;23948;43.252;26.572;2022-07-10T03:41:49;10.40;;;8.00;;
38132;SDS011;23948;43.252;26.572;2022-07-10T03:44:15;10.50;;;7.05;;
38132;SDS011;23948;43.252;26.572;2022-07-10T03:46:40;10.30;;;7.28;;
38132;SDS011;23948;43.252;26.572;2022-07-10T03:49:05;10.00;;;7.28;;
38132;SDS011;23948;43.252;26.572;2022-07-10T03:51:31;10.55;;;6.88;;
38132;SDS011;23948;43.252;26.572;2022-07-10T03:53:56;8.85;;;6.30;;
38132;SDS011;23948;43.252;26.572;2022-07-10T03:56:21;9.32;;;6.88;;
38132;SDS011;23948;43.252;26.572;2022-07-10T03:59:05;11.13;;;6.63;;
38132;SDS011;23948;43.252;26.572;2022-07-10T04:01:30;10.27;;;6.75;;
38132;SDS011;23948;43.252;26.572;2022-07-10T04:03:56;10.52;;;7.93;;
38132;SDS011;23948;43.252;26.572;2022-07-10T04:06:21;9.07;;;6.72;;
38132;SDS011;23948;43.252;26.572;2022-07-10T04:08:46;13.45;;;7.70;;
38132;SDS011;23948;43.252;26.572;2022-07-10T04:11:11;8.55;;;7.35;;
38132;SDS011;23948;43.252;26.572;2022-07-10T04:13:37;13.13;;;7.20;;
38132;SDS011;23948;43.252;26.572;2022-07-10T04:16:02;8.55;;;7.00;;
38132;SDS011;23948;43.252;26.572;2022-07-10T04:18:28;9.77;;;6.97;;
38132;SDS011;23948;43.252;26.572;2022-07-10T04:20:53;8.85;;;6.50;;
38132;SDS011;23948;43.252;26.572;2022-07-10T04:23:18;7.93;;;6.00;;
38132;SDS011;23948;43.252;26.572;2022-07-10T04:25:43;10.15;;;5.68;;
38132;SDS011;23948;43.252;26.572;2022-07-10T04:28:09;11.07;;;6.10;;
38132;SDS011;23948;43.252;26.572;2022-07-10T04:30:34;8.80;;;5.60;;
38132;SDS011;23948;43.252;26.572;2022-07-10T04:32:59;9.88;;;5.50;;
38132;SDS011;23948;43.252;26.572;2022-07-10T04:35:24;12.98;;;4.97;;
38132;SDS011;23948;43.252;26.572;2022-07-10T04:37:50;8.40;;;4.97;;
38132;SDS011;23948;43.252;26.572;2022-07-10T04:40:15;7.38;;;5.07;;
38132;SDS011;23948;43.252;26.572;2022-07-10T04:42:40;5.53;;;4.50;;
38132;SDS011;23948;43.252;26.572;2022-07-10T04:45:06;8.52;;;4.50;;
38132;SDS011;23948;43.252;26.572;2022-07-10T04:47:31;6.72;;;5.03;;
38132;SDS011;23948;43.252;26.572;2022-07-10T04:49:56;8.10;;;4.63;;
38132;SDS011;23948;43.252;26.572;2022-07-10T04:52:22;8.13;;;4.70;;
38132;SDS011;23948;43.252;26.572;2022-07-10T04:54:47;6.05;;;4.55;;
38132;SDS011;23948;43.252;26.572;2022-07-10T04:57:12;7.90;;;4.88;;
38132;SDS011;23948;43.252;26.572;2022-07-10T04:59:37;6.20;;;4.82;;
38132;SDS011;23948;43.252;26.572;2022-07-10T05:02:03;7.93;;;4.60;;
38132;SDS011;23948;43.252;26.572;2022-07-10T05:04:28;9.63;;;4.60;;
38132;SDS011;23948;43.252;26.572;2022-07-10T05:06:53;6.40;;;4.28;;
38132;SDS011;23948;43.252;26.572;2022-07-10T05:09:19;9.27;;;4.15;;
38132;SDS011;23948;43.252;26.572;2022-07-10T05:11:45;7.60;;;4.55;;
38132;SDS011;23948;43.252;26.572;2022-07-10T05:14:10;7.82;;;4.80;;
38132;SDS011;23948;43.252;26.572;2022-07-10T05:16:36;6.43;;;4.43;;
38132;SDS011;23948;43.252;26.572;2022-07-10T05:19:01;7.93;;;4.47;;
38132;SDS011;23948;43.252;26.572;2022-07-10T05:21:26;6.57;;;4.47;;
38132;SDS011;23948;43.252;26.572;2022-07-10T05:23:52;7.93;;;4.72;;
38132;SDS011;23948;43.252;26.572;2022-07-10T05:26:17;6.68;;;4.65;;
38132;SDS011;23948;43.252;26.572;2022-07-10T05:28:43;6.95;;;4.55;;
38132;SDS011;23948;43.252;26.572;2022-07-10T05:31:08;7.85;;;4.35;;
38132;SDS011;23948;43.252;26.572;2022-07-10T05:33:33;8.00;;;4.50;;
38132;SDS011;23948;43.252;26.572;2022-07-10T05:35:59;7.93;;;4.50;;
38132;SDS011;23948;43.252;26.572;2022-07-10T05:38:24;7.85;;;4.72;;
38132;SDS011;23948;43.252;26.572;2022-07-10T05:40:49;7.13;;;4.35;;
38132;SDS011;23948;43.252;26.572;2022-07-10T05:43:15;11.25;;;3.70;;
38132;SDS011;23948;43.252;26.572;2022-07-10T05:45:41;5.50;;;3.30;;
38132;SDS011;23948;43.252;26.572;2022-07-10T05:48:06;6.43;;;3.30;;
38132;SDS011;23948;43.252;26.572;2022-07-10T05:50:31;6.60;;;3.33;;
38132;SDS011;23948;43.252;26.572;2022-07-10T05:52:57;10.48;;;3.38;;
38132;SDS011;23948;43.252;26.572;2022-07-10T05:55:22;12.50;;;3.70;;
38132;SDS011;23948;43.252;26.572;2022-07-10T05:57:48;6.35;;;3.03;;
38132;SDS011;23948;43.252;26.572;2022-07-10T06:00:14;8.60;;;3.50;;
38132;SDS011;23948;43.252;26.572;2022-07-10T06:02:39;5.68;;;3.17;;
38132;SDS011;23948;43.252;26.572;2022-07-10T06:05:05;10.13;;;3.33;;
38132;SDS011;23948;43.252;26.572;2022-07-10T06:07:30;5.85;;;3.22;;
38132;SDS011;23948;43.252;26.572;2022-07-10T06:09:56;4.68;;;3.00;;
38132;SDS011;23948;43.252;26.572;2022-07-10T06:12:22;5.93;;;3.45;;
38132;SDS011;23948;43.252;26.572;2022-07-10T06:14:47;8.57;;;3.10;;
38132;SDS011;23948;43.252;26.572;2022-07-10T06:17:12;6.15;;;3.42;;
38132;SDS011;23948;43.252;26.572;2022-07-10T06:19:38;4.50;;;3.15;;
38132;SDS011;23948;43.252;26.572;2022-07-10T06:22:03;4.93;;;3.50;;
38132;SDS011;23948;43.252;26.572;2022-07-10T06:24:47;8.55;;;3.30;;
38132;SDS011;23948;43.252;26.572;2022-07-10T06:27:12;6.82;;;3.33;;
38132;SDS011;23948;43.252;26.572;2022-07-10T06:29:37;9.52;;;3.00;;
38132;SDS011;23948;43.252;26.572;2022-07-10T06:32:03;5.32;;;2.72;;
38132;SDS011;23948;43.252;26.572;2022-07-10T06:34:29;13.25;;;3.13;;
38132;SDS011;23948;43.252;26.572;2022-07-10T06:36:54;4.63;;;3.40;;
38132;SDS011;23948;43.252;26.572;2022-07-10T06:39:19;5.03;;;3.20;;
38132;SDS011;23948;43.252;26.572;2022-07-10T06:41:45;6.93;;;2.83;;
38132;SDS011;23948;43.252;26.572;2022-07-10T06:44:10;7.65;;;2.83;;
38132;SDS011;23948;43.252;26.572;2022-07-10T06:46:35;7.35;;;2.90;;
38132;SDS011;23948;43.252;26.572;2022-07-10T06:49:02;5.57;;;2.80;;
38132;SDS011;23948;43.252;26.572;2022-07-10T06:51:27;4.47;;;3.15;;
38132;SDS011;23948;43.252;26.572;2022-07-10T06:53:53;6.13;;;3.00;;
38132;SDS011;23948;43.252;26.572;2022-07-10T06:56:18;8.48;;;3.58;;
38132;SDS011;23948;43.252;26.572;2022-07-10T06:58:43;5.13;;;2.47;;
38132;SDS011;23948;43.252;26.572;2022-07-10T07:01:09;5.78;;;2.60;;
38132;SDS011;23948;43.252;26.572;2022-07-10T07:03:34;6.65;;;2.70;;
38132;SDS011;23948;43.252;26.572;2022-07-10T07:05:59;5.55;;;2.70;;
38132;SDS011;23948;43.252;26.572;2022-07-10T07:08:25;4.35;;;2.50;;
38132;SDS011;23948;43.252;26.572;2022-07-10T07:10:50;4.70;;;2.40;;
38132;SDS011;23948;43.252;26.572;2022-07-10T07:13:15;2.97;;;1.90;;
38132;SDS011;23948;43.252;26.572;2022-07-10T07:15:41;5.18;;;2.15;;
38132;SDS011;23948;43.252;26.572;2022-07-10T07:18:11;5.00;;;2.28;;
38132;SDS011;23948;43.252;26.572;2022-07-10T07:20:38;7.35;;;2.10;;
38132;SDS011;23948;43.252;26.572;2022-07-10T07:23:22;4.50;;;2.10;;
38132;SDS011;23948;43.252;26.572;2022-07-10T07:25:47;4.35;;;2.65;;
38132;SDS011;23948;43.252;26.572;2022-07-10T07:28:15;5.85;;;2.60;;
38132;SDS011;23948;43.252;26.572;2022-07-10T07:30:41;7.03;;;2.25;;
38132;SDS011;23948;43.252;26.572;2022-07-10T07:33:07;4.43;;;1.90;;
38132;SDS011;23948;43.252;26.572;2022-07-10T07:35:32;3.47;;;2.00;;
38132;SDS011;23948;43.252;26.572;2022-07-10T07:37:58;4.60;;;2.00;;
38132;SDS011;23948;43.252;26.572;2022-07-10T07:40:23;6.60;;;1.70;;
38132;SDS011;23948;43.252;26.572;2022-07-10T07:42:49;4.43;;;2.00;;
38132;SDS011;23948;43.252;26.572;2022-07-10T07:45:14;3.35;;;1.83;;
38132;SDS011;23948;43.252;26.572;2022-07-10T07:50:15;4.90;;;1.90;;
38132;SDS011;23948;43.252;26.572;2022-07-10T07:52:40;2.72;;;1.92;;
38132;SDS011;23948;43.252;26.572;2022-07-10T07:55:06;5.00;;;1.90;;
38132;SDS011;23948;43.252;26.572;2022-07-10T07:57:32;5.30;;;2.00;;
38132;SDS011;23948;43.252;26.572;2022-07-10T07:59:57;3.83;;;1.80;;
38132;SDS011;23948;43.252;26.572;2022-07-10T08:02:22;3.72;;;1.90;;
38132;SDS011;23948;43.252;26.572;2022-07-10T08:04:48;3.20;;;1.48;;
38132;SDS011;23948;43.252;26.572;2022-07-10T08:07:13;3.90;;;1.90;;
38132;SDS011;23948;43.252;26.572;2022-07-10T08:09:39;4.07;;;1.83;;
38132;SDS011;23948;43.252;26.572;2022-07-10T08:12:05;4.32;;;1.73;;
38132;SDS011;23948;43.252;26.572;2022-07-10T08:14:30;4.45;;;1.80;;
38132;SDS011;23948;43.252;26.572;2022-07-10T08:16:55;2.63;;;1.70;;
38132;SDS011;23948;43.252;26.572;2022-07-10T08:19:21;3.20;;;1.58;;
38132;SDS011;23948;43.252;26.572;2022-07-10T08:21:46;4.35;;;1.90;;
38132;SDS011;23948;43.252;26.572;2022-07-10T08:24:11;6.20;;;2.10;;
38132;SDS011;23948;43.252;26.572;2022-07-10T08:26:37;7.22;;;2.22;;
38132;SDS011;23948;43.252;26.572;2022-07-10T08:29:02;5.93;;;2.00;;
38132;SDS011;23948;43.252;26.572;2022-07-10T08:31:27;5.15;;;2.13;;
38132;SDS011;23948;43.252;26.572;2022-07-10T08:33:53;6.05;;;1.90;;
38132;SDS011;23948;43.252;26.572;2022-07-10T08:36:18;6.57;;;2.00;;
38132;SDS011;23948;43.252;26.572;2022-07-10T08:38:43;5.18;;;2.05;;
38132;SDS011;23948;43.252;26.572;2022-07-10T08:41:09;3.13;;;1.80;;
38132;SDS011;23948;43.252;26.572;2022-07-10T08:43:36;5.65;;;1.90;;
38132;SDS011;23948;43.252;26.572;2022-07-10T08:46:02;4.60;;;1.90;;
38132;SDS011;23948;43.252;26.572;2022-07-10T08:48:27;6.82;;;2.20;;
38132;SDS011;23948;43.252;26.572;2022-07-10T08:50:56;4.13;;;1.80;;
38132;SDS011;23948;43.252;26.572;2022-07-10T08:53:29;5.50;;;2.10;;
38132;SDS011;23948;43.252;26.572;2022-07-10T08:55:55;3.05;;;1.98;;
38132;SDS011;23948;43.252;26.572;2022-07-10T08:58:22;4.28;;;1.88;;
38132;SDS011;23948;43.252;26.572;2022-07-10T09:00:47;2.50;;;1.80;;
38132;SDS011;23948;43.252;26.572;2022-07-10T09:03:12;8.27;;;2.03;;
38132;SDS011;23948;43.252;26.572;2022-07-10T09:05:38;2.72;;;1.70;;
38132;SDS011;23948;43.252;26.572;2022-07-10T09:08:03;6.78;;;2.15;;
38132;SDS011;23948;43.252;26.572;2022-07-10T09:10:28;2.45;;;1.60;;
38132;SDS011;23948;43.252;26.572;2022-07-10T09:12:55;5.30;;;1.92;;
38132;SDS011;23948;43.252;26.572;2022-07-10T09:15:21;3.95;;;1.90;;
38132;SDS011;23948;43.252;26.572;2022-07-10T09:17:51;3.22;;;1.83;;
38132;SDS011;23948;43.252;26.572;2022-07-10T09:20:33;3.88;;;2.08;;
38132;SDS011;23948;43.252;26.572;2022-07-10T09:23:17;7.00;;;2.55;;
38132;SDS011;23948;43.252;26.572;2022-07-10T09:25:44;4.63;;;2.95;;
38132;SDS011;23948;43.252;26.572;2022-07-10T09:28:09;5.88;;;2.25;;
38132;SDS011;23948;43.252;26.572;2022-07-10T09:41:13;8.07;;;2.30;;
38132;SDS011;23948;43.252;26.572;2022-07-10T09:43:58;3.55;;;2.10;;
38132;SDS011;23948;43.252;26.572;2022-07-10T09:46:25;6.28;;;2.33;;
38132;SDS011;23948;43.252;26.572;2022-07-10T09:49:00;12.82;;;2.38;;
38132;SDS011;23948;43.252;26.572;2022-07-10T09:51:26;3.35;;;2.00;;
38132;SDS011;23948;43.252;26.572;2022-07-10T09:53:54;6.82;;;2.53;;
38132;SDS011;23948;43.252;26.572;2022-07-10T09:56:20;3.50;;;2.00;;
38132;SDS011;23948;43.252;26.572;2022-07-10T09:58:46;4.25;;;2.00;;
38132;SDS011;23948;43.252;26.572;2022-07-10T10:01:15;7.20;;;2.63;;
38132;SDS011;23948;43.252;26.572;2022-07-10T10:03:41;4.47;;;2.65;;
38132;SDS011;23948;43.252;26.572;2022-07-10T10:06:10;5.63;;;2.60;;
38132;SDS011;23948;43.252;26.572;2022-07-10T10:08:59;5.07;;;2.33;;
38132;SDS011;23948;43.252;26.572;2022-07-10T10:11:26;5.65;;;2.30;;
38132;SDS011;23948;43.252;26.572;2022-07-10T10:13:52;3.65;;;2.03;;
38132;SDS011;23948;43.252;26.572;2022-07-10T10:16:18;7.30;;;2.90;;
38132;SDS011;23948;43.252;26.572;2022-07-10T10:18:44;7.22;;;2.75;;
38132;SDS011;23948;43.252;26.572;2022-07-10T10:21:38;3.17;;;2.10;;
38132;SDS011;23948;43.252;26.572;2022-07-10T10:24:04;3.50;;;2.15;;
38132;SDS011;23948;43.252;26.572;2022-07-10T10:26:31;4.50;;;2.60;;
38132;SDS011;23948;43.252;26.572;2022-07-10T10:28:58;7.32;;;2.63;;
38132;SDS011;23948;43.252;26.572;2022-07-10T10:31:24;5.38;;;2.33;;
38132;SDS011;23948;43.252;26.572;2022-07-10T10:33:53;6.45;;;2.60;;
38132;SDS011;23948;43.252;26.572;2022-07-10T10:41:36;5.35;;;2.25;;
38132;SDS011;23948;43.252;26.572;2022-07-10T10:46:52;5.47;;;2.20;;
38132;SDS011;23948;43.252;26.572;2022-07-10T10:49:19;4.50;;;2.08;;
38132;SDS011;23948;43.252;26.572;2022-07-10T10:52:00;5.65;;;2.08;;
38132;SDS011;23948;43.252;26.572;2022-07-10T10:54:30;4.20;;;2.10;;
38132;SDS011;23948;43.252;26.572;2022-07-10T10:57:11;5.72;;;1.98;;
38132;SDS011;23948;43.252;26.572;2022-07-10T11:04:45;6.20;;;3.00;;
38132;SDS011;23948;43.252;26.572;2022-07-10T11:07:11;8.73;;;5.18;;
38132;SDS011;23948;43.252;26.572;2022-07-10T11:09:36;4.82;;;2.50;;
38132;SDS011;23948;43.252;26.572;2022-07-10T11:14:27;3.33;;;1.80;;
38132;SDS011;23948;43.252;26.572;2022-07-10T11:16:56;6.75;;;2.15;;
38132;SDS011;23948;43.252;26.572;2022-07-10T11:19:31;5.50;;;2.10;;
38132;SDS011;23948;43.252;26.572;2022-07-10T11:29:46;5.35;;;2.15;;
38132;SDS011;23948;43.252;26.572;2022-07-10T11:32:21;3.15;;;1.70;;
38132;SDS011;23948;43.252;26.572;2022-07-10T11:34:46;3.42;;;2.15;;
38132;SDS011;23948;43.252;26.572;2022-07-10T11:37:15;5.05;;;2.47;;
38132;SDS011;23948;43.252;26.572;2022-07-10T11:39:41;4.47;;;2.15;;
38132;SDS011;23948;43.252;26.572;2022-07-10T11:42:06;5.80;;;2.47;;
38132;SDS011;23948;43.252;26.572;2022-07-10T11:44:32;5.60;;;2.78;;
38132;SDS011;23948;43.252;26.572;2022-07-10T11:46:57;5.45;;;2.53;;
38132;SDS011;23948;43.252;26.572;2022-07-10T11:49:23;5.25;;;2.20;;
38132;SDS011;23948;43.252;26.572;2022-07-10T11:51:48;7.90;;;2.70;;
38132;SDS011;23948;43.252;26.572;2022-07-10T11:54:15;5.03;;;2.20;;
38132;SDS011;23948;43.252;26.572;2022-07-10T11:56:50;5.15;;;2.70;;
38132;SDS011;23948;43.252;26.572;2022-07-10T11:59:22;4.25;;;2.33;;
38132;SDS011;23948;43.252;26.572;2022-07-10T12:01:49;4.75;;;2.63;;
38132;SDS011;23948;43.252;26.572;2022-07-10T12:04:16;4.53;;;2.55;;
38132;SDS011;23948;43.252;26.572;2022-07-10T12:06:42;7.03;;;3.00;;
38132;SDS011;23948;43.252;26.572;2022-07-10T12:09:13;6.00;;;2.90;;
38132;SDS011;23948;43.252;26.572;2022-07-10T12:11:39;5.82;;;3.20;;
38132;SDS011;23948;43.252;26.572;2022-07-10T12:14:09;5.43;;;3.13;;
38132;SDS011;23948;43.252;26.572;2022-07-10T12:16:35;7.97;;;3.20;;
38132;SDS011;23948;43.252;26.572;2022-07-10T12:19:00;6.95;;;3.50;;
38132;SDS011;23948;43.252;26.572;2022-07-10T12:21:26;6.07;;;3.88;;
38132;SDS011;23948;43.252;26.572;2022-07-10T12:23:51;7.63;;;3.63;;
38132;SDS011;23948;43.252;26.572;2022-07-10T12:26:17;5.00;;;3.30;;
38132;SDS011;23948;43.252;26.572;2022-07-10T12:28:52;7.25;;;3.60;;
38132;SDS011;23948;43.252;26.572;2022-07-10T12:31:25;5.57;;;3.40;;
38132;SDS011;23948;43.252;26.572;2022-07-10T12:33:51;4.45;;;3.55;;
38132;SDS011;23948;43.252;26.572;2022-07-10T12:36:17;6.43;;;3.67;;
38132;SDS011;23948;43.252;26.572;2022-07-10T12:38:43;5.00;;;3.50;;
38132;SDS011;23948;43.252;26.572;2022-07-10T12:41:17;4.90;;;3.50;;
38132;SDS011;23948;43.252;26.572;2022-07-10T12:43:48;5.30;;;3.15;;
38132;SDS011;23948;43.252;26.572;2022-07-10T12:46:14;10.50;;;3.20;;
38132;SDS011;23948;43.252;26.572;2022-07-10T12:51:29;5.75;;;3.00;;
38132;SDS011;23948;43.252;26.572;2022-07-10T12:53:54;6.22;;;2.95;;
38132;SDS011;23948;43.252;26.572;2022-07-10T12:58:58;7.57;;;3.30;;
38132;SDS011;23948;43.252;26.572;2022-07-10T13:01:23;8.15;;;3.08;;
38132;SDS011;23948;43.252;26.572;2022-07-10T13:03:49;7.75;;;2.83;;
38132;SDS011;23948;43.252;26.572;2022-07-10T13:06:27;4.32;;;2.40;;
38132;SDS011;23948;43.252;26.572;2022-07-10T13:08:53;6.15;;;2.65;;
38132;SDS011;23948;43.252;26.572;2022-07-10T13:11:19;7.90;;;2.50;;
38132;SDS011;23948;43.252;26.572;2022-07-10T13:13:44;3.60;;;2.47;;
38132;SDS011;23948;43.252;26.572;2022-07-10T13:16:09;5.95;;;2.80;;
38132;SDS011;23948;43.252;26.572;2022-07-10T13:18:35;4.18;;;2.70;;
38132;SDS011;23948;43.252;26.572;2022-07-10T13:21:00;5.28;;;2.80;;
38132;SDS011;23948;43.252;26.572;2022-07-10T13:23:28;4.75;;;2.90;;
38132;SDS011;23948;43.252;26.572;2022-07-10T13:25:53;5.97;;;2.75;;
38132;SDS011;23948;43.252;26.572;2022-07-10T13:28:19;4.18;;;2.60;;
38132;SDS011;23948;43.252;26.572;2022-07-10T13:30:44;4.15;;;2.58;;
38132;SDS011;23948;43.252;26.572;2022-07-10T13:33:09;6.32;;;2.97;;
38132;SDS011;23948;43.252;26.572;2022-07-10T13:35:35;6.78;;;2.83;;
38132;SDS011;23948;43.252;26.572;2022-07-10T13:38:01;5.05;;;2.80;;
38132;SDS011;23948;43.252;26.572;2022-07-10T13:40:28;7.03;;;2.90;;
38132;SDS011;23948;43.252;26.572;2022-07-10T13:42:53;6.97;;;3.20;;
38132;SDS011;23948;43.252;26.572;2022-07-10T13:45:20;5.13;;;2.78;;
38132;SDS011;23948;43.252;26.572;2022-07-10T13:47:45;5.63;;;3.15;;
38132;SDS011;23948;43.252;26.572;2022-07-10T13:50:11;5.50;;;3.13;;
38132;SDS011;23948;43.252;26.572;2022-07-10T13:52:36;8.27;;;3.00;;
38132;SDS011;23948;43.252;26.572;2022-07-10T13:55:02;4.55;;;3.10;;
38132;SDS011;23948;43.252;26.572;2022-07-10T13:57:29;5.13;;;3.20;;
38132;SDS011;23948;43.252;26.572;2022-07-10T13:59:54;5.85;;;3.05;;
38132;SDS011;23948;43.252;26.572;2022-07-10T14:02:20;8.20;;;3.10;;
38132;SDS011;23948;43.252;26.572;2022-07-10T14:04:45;6.82;;;3.17;;
38132;SDS011;23948;43.252;26.572;2022-07-10T14:07:10;10.00;;;3.22;;
38132;SDS011;23948;43.252;26.572;2022-07-10T14:09:36;4.97;;;2.92;;
38132;SDS011;23948;43.252;26.572;2022-07-10T14:12:01;4.55;;;2.97;;
38132;SDS011;23948;43.252;26.572;2022-07-10T14:14:27;4.80;;;2.95;;
38132;SDS011;23948;43.252;26.572;2022-07-10T14:16:52;4.57;;;3.13;;
38132;SDS011;23948;43.252;26.572;2022-07-10T14:19:17;8.10;;;3.55;;
38132;SDS011;23948;43.252;26.572;2022-07-10T14:21:43;5.30;;;2.95;;
38132;SDS011;23948;43.252;26.572;2022-07-10T14:24:08;5.03;;;3.03;;
38132;SDS011;23948;43.252;26.572;2022-07-10T14:26:34;5.25;;;3.33;;
38132;SDS011;23948;43.252;26.572;2022-07-10T14:29:01;5.93;;;3.17;;
38132;SDS011;23948;43.252;26.572;2022-07-10T14:31:27;4.78;;;3.03;;
38132;SDS011;23948;43.252;26.572;2022-07-10T14:33:52;5.70;;;3.00;;
38132;SDS011;23948;43.252;26.572;2022-07-10T14:36:17;6.47;;;3.10;;
38132;SDS011;23948;43.252;26.572;2022-07-10T14:38:43;5.53;;;2.78;;
38132;SDS011;23948;43.252;26.572;2022-07-10T14:41:09;5.32;;;3.00;;
38132;SDS011;23948;43.252;26.572;2022-07-10T14:43:34;7.35;;;3.50;;
38132;SDS011;23948;43.252;26.572;2022-07-10T14:46:00;34.33;;;4.50;;
38132;SDS011;23948;43.252;26.572;2022-07-10T14:48:28;23.80;;;4.80;;
38132;SDS011;23948;43.252;26.572;2022-07-10T14:50:54;22.75;;;4.88;;
38132;SDS011;23948;43.252;26.572;2022-07-10T14:53:22;29.33;;;5.70;;
38132;SDS011;23948;43.252;26.572;2022-07-10T14:55:47;22.65;;;7.55;;
38132;SDS011;23948;43.252;26.572;2022-07-10T14:58:13;14.25;;;6.28;;
38132;SDS011;23948;43.252;26.572;2022-07-10T15:00:38;12.98;;;4.78;;
38132;SDS011;23948;43.252;26.572;2022-07-10T15:03:04;15.27;;;5.38;;
38132;SDS011;23948;43.252;26.572;2022-07-10T15:05:29;9.93;;;5.65;;
38132;SDS011;23948;43.252;26.572;2022-07-10T15:07:54;13.18;;;5.20;;
38132;SDS011;23948;43.252;26.572;2022-07-10T15:10:20;9.48;;;5.38;;